Imperial Valley (TL50001) Station Data

Red Flag Warning: No
Fire Weather Zone: 262
SDGE Region: Mountain Empire
Lat/Lon: 32.745/-116.038

Observations

Time Wind Speed/Gust Temp(F) RH Fuel Moist Fuel Temp(F) Dewpt(F) Tmax(F) Tmin(F) Accum Precip 10-min Precip SL Press(mb)
6/27 5:00pm 274 18 G 28 105° 3% - - 12° 110° 91.9° - - 1007.0
6/27 4:50pm 268 17 G 29 106° 4% - - 14° 110° 91.9° - - 1007.0
6/27 4:40pm 266 16 G 29 106° 3% - - 12° 110° 91.9° - - 1007.0
6/27 4:30pm 266 16 G 29 107° 3% - - 12° 110° 91.9° - - 1007.0
6/27 4:20pm 267 16 G 30 107° 3% - - 11° 110° 91.9° - - 1007.0
6/27 4:10pm 264 15 G 26 107° 3% - - 11° 110° 91.9° - - 1007.0
6/27 4:00pm 266 16 G 28 108° 3% - - 12° 110° 91.9° - - 1007.0
6/27 3:50pm 269 16 G 31 108° 3% - - 10° 110° 91.9° - - 1007.0
6/27 3:40pm 265 15 G 29 108° 3% - - 11° 110° 91.9° - - 1007.0
6/27 3:30pm 266 15 G 26 108° 3% - - 10° 110° 91.9° - - 1008.0
6/27 3:20pm 271 17 G 31 108° 3% - - 110° 91.9° - - 1008.0
6/27 3:10pm 271 17 G 30 108° 3% - - 11° 110° 91.9° - - 1008.0
6/27 3:00pm 268 14 G 29 108° 3% - - 11° 110° 91.9° - - 1008.0
6/27 2:50pm 270 15 G 25 108° 3% - - 11° 110° 91.9° - - 1008.0
6/27 2:40pm 265 14 G 27 108° 3% - - 11° 110° 91.9° - - 1008.0
6/27 2:30pm 261 14 G 29 108° 3% - - 12° 110° 91.9° - - 1008.0
6/27 2:20pm 261 14 G 24 108° 3% - - 11° 110° 91.9° - - 1008.0
6/27 2:10pm 268 17 G 30 108° 3% - - 10° 110° 91.9° - - 1008.0
6/27 2:00pm 262 14 G 23 109° 3% - - 10° 110° 91.9° - - 1008.0
6/27 1:50pm 263 15 G 26 108° 3% - - 11° 109.5° 91.9° - - 1008.0
6/27 1:40pm 260 13 G 24 109° 3% - - 11° 109.5° 91.9° - - 1008.0
6/27 1:30pm 257 13 G 21 108° 3% - - 10° 109.5° 91.9° - - 1009.0
6/27 1:20pm 269 14 G 26 108° 3% - - 10° 109.5° 91.9° - - 1009.0
6/27 1:10pm 274 14 G 26 109° 3% - - 109.5° 91.9° - - 1009.0
6/27 1:00pm 264 12 G 24 109° 3% - - 11° 109.4° 91.9° - - 1009.0
6/27 12:50pm 261 13 G 21 108° 3% - - 10° 109.4° 91.9° - - 1009.0
6/27 12:40pm 256 15 G 26 108° 3% - - 10° 109.4° 91.9° - - 1009.0
6/27 12:30pm 271 11 G 20 108° 3% - - 10° 109.2° 91.9° - - 1009.0
6/27 12:20pm 289 14 G 25 108° 3% - - 108.9° 91.9° - - 1009.0
6/27 12:10pm 253 12 G 19 108° 3% - - 11° 108.8° 91.9° - - 1009.0
6/27 12:00pm 269 10 G 18 108° 3% - - 10° 108.6° 91.9° - - 1009.0
6/27 11:50am 285 5 G 15 108° 3% - - 108.4° 91.9° - - 1010.0
6/27 11:40am 354 8 G 21 106° 3% - - 107.5° 91.9° - - 1010.0
6/27 11:30am 277 12 G 24 107° 3% - - 107.5° 91.9° - - 1009.0
6/27 11:20am 314 6 G 14 106° 3% - - 107.3° 91.9° - - 1010.0
6/27 11:10am 346 3 G 9 106° 3% - - 107.1° 91.9° - - 1010.0
6/27 11:00am 67 6 G 10 105° 3% - - 10° 105° 91.9° - - 1010.0
6/27 10:50am 57 6 G 11 104° 3% - - 10° 104.4° 91.9° - - 1010.0
6/27 10:40am 72 6 G 11 104° 3% - - 11° 104° 91.9° - - 1010.0
6/27 10:30am 65 7 G 11 103° 3% - - 10° 103.8° 91.9° - - 1010.0
6/27 10:20am 66 6 G 10 103° 3% - - 10° 103.1° 91.9° - - 1010.0
6/27 10:10am 85 7 G 10 103° 3% - - 11° 103° 91.9° - - 1010.0
6/27 10:00am 85 7 G 9 102° 4% - - 11° 102.9° 91.9° - - 1010.0
6/27 9:50am 70 8 G 13 102° 4% - - 12° 101.9° 91.9° - - 1010.0
6/27 9:40am 67 7 G 9 101° 4% - - 13° 101.2° 91.9° - - 1010.0
6/27 9:30am 75 7 G 10 100° 4% - - 14° 101.2° 91.9° - - 1010.0
6/27 9:20am 78 8 G 10 100° 4% - - 14° 101.2° 91.9° - - 1010.0
6/27 9:10am 66 8 G 12 101° 4% - - 13° 101.2° 91.9° - - 1010.0
6/27 9:00am 62 7 G 11 100° 4% - - 13° 101.2° 91.9° - - 1010.0
6/27 8:40am 28 5 G 9 101° 4% - - 14° 101.2° 91.9° - - 1010.0
6/27 8:30am 255 5 G 12 100° 5% - - 15° 100.9° 91.9° - - 1010.0
6/27 8:20am 266 7 G 12 100° 5% - - 15° 100.5° 91.9° - - 1010.0
6/27 8:10am 278 6 G 14 99° 5% - - 15° 99.7° 91.9° - - 1010.0
6/27 8:00am 273 6 G 11 99° 5% - - 15° 99° 91.9° - - 1010.0
6/27 7:50am 266 8 G 13 98° 5% - - 15° 98.5° 91.9° - - 1010.0
6/27 7:40am 270 7 G 13 98° 5% - - 14° 98.4° 91.9° - - 1010.0
6/27 7:30am 272 7 G 12 97° 5% - - 15° 97.4° 91.9° - - 1010.0
6/27 7:20am 273 8 G 14 96° 5% - - 15° 96.6° 91.9° - - 1010.0
6/27 7:10am 262 10 G 19 96° 5% - - 14° 96.4° 91.9° - - 1010.0
6/27 7:00am 279 10 G 16 95° 5% - - 15° 96.4° 91.9° - - 1010.0
6/27 6:50am 270 9 G 14 95° 5% - - 15° 96.4° 91.9° - - 1010.0
6/27 6:40am 276 8 G 14 94° 6% - - 16° 96.4° 91.9° - - 1010.0
6/27 6:30am 256 10 G 21 94° 6% - - 16° 96.4° 91.9° - - 1010.0
6/27 6:20am 256 10 G 18 93° 6% - - 16° 96.4° 91.9° - - 1010.0
6/27 6:10am 253 12 G 19 93° 6% - - 17° 96.4° 91.9° - - 1010.0
6/27 6:00am 247 16 G 22 93° 6% - - 17° 96.4° 91.9° - - 1010.0
6/27 5:50am 247 16 G 24 92° 7% - - 18° 96.4° 91.9° - - 1010.0
6/27 5:40am 247 16 G 26 92° 7% - - 18° 96.4° 92° - - 1010.0
6/27 5:30am 244 18 G 26 93° 7% - - 18° 96.4° 92.1° - - 1009.0
6/27 5:20am 244 18 G 25 92° 7% - - 18° 96.4° 92.1° - - 1009.0
6/27 5:10am 245 17 G 23 93° 6% - - 18° 96.4° 92.2° - - 1009.0
6/27 5:00am 246 16 G 25 93° 6% - - 18° 96.4° 92.2° - - 1009.0
6/27 4:50am 247 14 G 21 93° 6% - - 18° 96.4° 92.2° - - 1010.0
6/27 4:40am 259 10 G 20 93° 6% - - 18° 96.4° 92.2° - - 1010.0
6/27 4:30am 273 9 G 14 93° 6% - - 18° 96.4° 92.4° - - 1010.0
6/27 4:20am 259 10 G 18 93° 6% - - 17° 96.4° 92.5° - - 1010.0
6/27 4:10am 257 9 G 16 93° 6% - - 17° 96.4° 92.5° - - 1010.0
6/27 4:00am 258 10 G 18 93° 6% - - 17° 96.4° 92.5° - - 1010.0
6/27 3:50am 255 10 G 19 93° 6% - - 17° 96.4° 92.5° - - 1010.0
6/27 3:40am 257 10 G 19 94° 6% - - 16° 96.4° 93.1° - - 1010.0
6/27 3:30am 252 13 G 22 94° 6% - - 16° 96.4° 93.1° - - 1009.0
6/27 3:20am 249 13 G 21 94° 6% - - 16° 96.4° 93.1° - - 1009.0
6/27 3:10am 248 13 G 21 94° 6% - - 15° 96.4° 93.4° - - 1010.0
6/27 3:00am 248 12 G 21 94° 6% - - 15° 96.4° 93.7° - - 1010.0
6/27 2:50am 248 13 G 22 94° 6% - - 15° 96.4° 93.7° - - 1010.0
6/27 2:40am 250 13 G 19 94° 5% - - 15° 96.4° 93.7° - - 1010.0
6/27 2:30am 248 15 G 22 94° 5% - - 14° 96.4° 93.7° - - 1009.0
6/27 2:20am 247 15 G 22 94° 5% - - 14° 96.4° 93.7° - - 1010.0
6/27 2:10am 247 13 G 20 94° 5% - - 14° 96.4° 93.7° - - 1010.0
6/27 2:00am 245 16 G 22 94° 5% - - 14° 96.4° 93.7° - - 1010.0
6/27 1:50am 244 16 G 22 94° 5% - - 14° 96.4° 93.9° - - 1010.0
6/27 1:40am 244 15 G 20 94° 5% - - 14° 96.4° 94.1° - - 1010.0
6/27 1:30am 243 12 G 18 95° 5% - - 14° 96.4° 94.5° - - 1010.0
6/27 1:20am 241 13 G 17 95° 5% - - 14° 96.4° 94.5° - - 1010.0
6/27 1:10am 246 13 G 20 95° 5% - - 14° 96.4° 94.8° - - 1010.0
6/27 1:00am 247 12 G 20 95° 5% - - 15° 96.4° 95° - - 1010.0
6/27 12:50am 248 11 G 18 96° 5% - - 15° 96.4° 95.1° - - 1011.0
6/27 12:40am 252 11 G 16 96° 5% - - 14° 96.4° 95.5° - - 1011.0
6/27 12:30am 257 9 G 17 96° 5% - - 15° 96.3° 95.5° - - 1011.0
6/27 12:20am 257 9 G 18 96° 5% - - 15° 96.3° 95.8° - - 1011.0
6/27 12:10am 254 9 G 17 96° 5% - - 16° 96.3° 95.8° - - 1011.0
6/27 12:00am 255 9 G 16 96° 5% - - 16° 113.1° 87.7° - - 1011.0
6/26 11:50pm 251 11 G 18 96° 5% - - 16° 113.1° 87.7° - - 1011.0
6/26 11:40pm 255 8 G 14 97° 5% - - 16° 113.1° 87.7° - - 1011.0
6/26 11:30pm 251 9 G 16 97° 5% - - 16° 113.1° 87.7° - - 1011.0
6/26 11:20pm 257 8 G 15 98° 5% - - 15° 113.1° 87.7° - - 1011.0
6/26 11:10pm 256 7 G 12 97° 5% - - 16° 113.1° 87.7° - - 1011.0
6/26 11:00pm 255 7 G 14 97° 5% - - 17° 113.1° 87.7° - - 1011.0
6/26 10:50pm 259 6 G 12 98° 5% - - 17° 113.1° 87.7° - - 1011.0
6/26 10:40pm 263 8 G 16 98° 5% - - 17° 113.1° 87.7° - - 1011.0
6/26 10:30pm 263 8 G 15 98° 5% - - 17° 113.1° 87.7° - - 1011.0
6/26 10:20pm 262 7 G 13 98° 5% - - 18° 113.1° 87.7° - - 1011.0
6/26 10:10pm 257 8 G 13 98° 5% - - 18° 113.1° 87.7° - - 1011.0
6/26 10:00pm 258 8 G 15 99° 5% - - 18° 113.1° 87.7° - - 1011.0
6/26 9:50pm 259 6 G 11 99° 5% - - 18° 113.1° 87.7° - - 1011.0
6/26 9:40pm 268 6 G 13 99° 5% - - 18° 113.1° 87.7° - - 1011.0
6/26 9:30pm 268 6 G 12 100° 5% - - 19° 113.1° 87.7° - - 1011.0
6/26 9:20pm 269 6 G 11 100° 6% - - 19° 113.1° 87.7° - - 1011.0
6/26 9:10pm 280 7 G 14 100° 5% - - 19° 113.1° 87.7° - - 1011.0
6/26 9:00pm 293 7 G 11 100° 5% - - 19° 113.1° 87.7° - - 1011.0
6/26 8:50pm 282 8 G 12 100° 5% - - 19° 113.1° 87.7° - - 1011.0
6/26 8:40pm 280 7 G 13 101° 5% - - 19° 113.1° 87.7° - - 1011.0
6/26 8:30pm 280 9 G 15 101° 5% - - 20° 113.1° 87.7° - - 1011.0
6/26 8:20pm 276 8 G 13 102° 5% - - 20° 113.1° 87.7° - - 1011.0
6/26 8:10pm 291 9 G 14 102° 5% - - 19° 113.1° 87.7° - - 1011.0
6/26 8:00pm 283 11 G 18 103° 5% - - 19° 113.1° 87.7° - - 1011.0
6/26 7:50pm 274 11 G 17 103° 5% - - 19° 113.1° 87.7° - - 1011.0
6/26 7:40pm 280 11 G 18 104° 5% - - 19° 113.1° 87.7° - - 1010.0
6/26 7:30pm 288 10 G 15 104° 5% - - 20° 113.1° 87.7° - - 1010.0
6/26 7:20pm 287 12 G 18 105° 5% - - 21° 113.1° 87.7° - - 1010.0
6/26 7:10pm 296 10 G 15 105° 5% - - 21° 113.1° 87.7° - - 1010.0
6/26 7:00pm 306 13 G 22 106° 5% - - 22° 113.1° 87.7° - - 1010.0
6/26 6:50pm 306 14 G 21 106° 5% - - 22° 113.1° 87.7° - - 1010.0
6/26 6:40pm 298 15 G 20 106° 5% - - 23° 113.1° 87.7° - - 1010.0
6/26 6:30pm 298 14 G 21 107° 5% - - 23° 113.1° 87.7° - - 1010.0
6/26 6:20pm 297 13 G 21 107° 5% - - 23° 113.1° 87.7° - - 1010.0
6/26 6:10pm 295 13 G 20 108° 5% - - 23° 113.1° 87.7° - - 1009.0
6/26 6:00pm 296 16 G 23 108° 5% - - 23° 113.1° 87.7° - - 1009.0
6/26 5:50pm 293 14 G 20 109° 5% - - 23° 113.1° 87.7° - - 1009.0
6/26 5:40pm 297 17 G 26 109° 5% - - 23° 113.1° 87.7° - - 1009.0
6/26 5:30pm 309 15 G 23 110° 5% - - 23° 113.1° 87.7° - - 1009.0
6/26 5:20pm 320 17 G 26 110° 5% - - 23° 113.1° 87.7° - - 1009.0
6/26 5:10pm 328 17 G 23 110° 5% - - 23° 113.1° 87.7° - - 1009.0
6/26 5:00pm 325 15 G 24 111° 5% - - 23° 113.1° 87.7° - - 1009.0
6/26 4:50pm 325 16 G 24 111° 5% - - 23° 113.1° 87.7° - - 1009.0
6/26 4:40pm 326 18 G 26 110° 5% - - 22° 113.1° 87.7° - - 1009.0
6/26 4:30pm 329 17 G 25 111° 5% - - 22° 113.1° 87.7° - - 1009.0
6/26 4:20pm 330 17 G 23 111° 5% - - 23° 113.1° 87.7° - - 1010.0
6/26 4:10pm 328 16 G 25 111° 5% - - 24° 113.1° 87.7° - - 1010.0
6/26 4:00pm 335 15 G 24 112° 5% - - 23° 113.1° 87.7° - - 1010.0
6/26 3:50pm 319 14 G 21 112° 5% - - 23° 113.1° 87.7° - - 1010.0
6/26 3:40pm 322 17 G 26 112° 5% - - 23° 113.1° 87.7° - - 1010.0
6/26 3:30pm 331 15 G 24 112° 5% - - 24° 113.1° 87.7° - - 1010.0
6/26 3:20pm 335 15 G 25 112° 5% - - 24° 113.1° 87.7° - - 1010.0
6/26 3:10pm 329 14 G 22 111° 5% - - 24° 112.1° 87.7° - - 1010.0
6/26 3:00pm 353 12 G 26 112° 5% - - 25° 112.1° 87.7° - - 1010.0
6/26 2:50pm 37 7 G 17 111° 7% - - 31° 111.7° 87.7° - - 1010.0
6/26 2:40pm 92 6 G 10 111° 8% - - 36° 111.6° 87.7° - - 1010.0
6/26 2:30pm 146 7 G 12 110° 8% - - 35° 111.6° 87.7° - - 1010.0
6/26 2:20pm 107 5 G 8 110° 8% - - 37° 111.6° 87.7° - - 1011.0
6/26 2:10pm 155 4 G 8 109° 9% - - 38° 110.4° 87.7° - - 1011.0
6/26 2:00pm 110 7 G 13 109° 10% - - 39° 110.4° 87.7° - - 1011.0
6/26 1:50pm 97 5 G 11 109° 10% - - 40° 110.4° 87.7° - - 1011.0
6/26 1:40pm 97 3 G 8 109° 9% - - 39° 110.4° 87.7° - - 1011.0
6/26 1:30pm 66 4 G 11 108° 10% - - 41° 109.2° 87.7° - - 1011.0
6/26 1:20pm 72 6 G 13 108° 11% - - 41° 108.6° 87.7° - - 1012.0
6/26 1:10pm 69 7 G 14 107° 11% - - 41° 108° 87.7° - - 1012.0
6/26 1:00pm 61 7 G 12 107° 11% - - 41° 107.3° 87.7° - - 1012.0
6/26 12:50pm 121 6 G 11 106° 11% - - 41° 107.2° 87.7° - - 1012.0
6/26 12:40pm 103 7 G 12 107° 11% - - 40° 107.2° 87.7° - - 1012.0
6/26 12:30pm 55 5 G 9 107° 10% - - 39° 107.1° 87.7° - - 1012.0
6/26 12:20pm 70 5 G 9 106° 10% - - 39° 107.1° 87.7° - - 1012.0
6/26 12:10pm 152 4 G 10 106° 10% - - 38° 106.9° 87.7° - - 1012.0
6/26 12:00pm 119 7 G 12 106° 10% - - 39° 106.9° 87.7° - - 1013.0
6/26 11:50am 95 5 G 10 106° 10% - - 39° 106.9° 87.7° - - 1013.0
6/26 11:40am 98 4 G 8 105° 11% - - 39° 106.5° 87.7° - - 1013.0
6/26 11:30am 121 5 G 9 104° 11% - - 39° 105.3° 87.7° - - 1013.0
6/26 11:20am 97 4 G 8 103° 12% - - 40° 103.6° 87.7° - - 1013.0
6/26 11:10am 78 5 G 8 102° 13% - - 41° 102.6° 87.7° - - 1013.0
6/26 11:00am 78 5 G 9 102° 13% - - 42° 102.2° 87.7° - - 1013.0
6/26 10:50am 82 5 G 8 101° 13% - - 42° 101.5° 87.7° - - 1013.0
6/26 10:40am 86 6 G 9 100° 14% - - 43° 100.9° 87.7° - - 1013.0
6/26 10:30am 80 6 G 10 99° 15% - - 44° 99.8° 87.7° - - 1013.0
6/26 10:20am 95 6 G 12 99° 15% - - 44° 99.7° 87.7° - - 1013.0
6/26 10:10am 100 6 G 10 99° 15% - - 43° 99.7° 87.7° - - 1013.0
6/26 10:00am 87 7 G 11 98° 15% - - 43° 99.7° 87.7° - - 1013.0
6/26 9:50am 105 6 G 9 97° 21% - - 50° 99.7° 87.7° - - 1013.0
6/26 9:40am 114 5 G 10 96° 25% - - 55° 99.7° 87.7° - - 1014.0
6/26 9:30am 92 4 G 8 96° 25% - - 55° 99.7° 87.7° - - 1014.0
6/26 9:20am 86 2 G 5 95° 27% - - 56° 99.7° 87.7° - - 1014.0
6/26 9:10am 68 3 G 6 93° 30% - - 57° 99.7° 87.7° - - 1014.0
6/26 9:00am 75 4 G 6 93° 30% - - 57° 99.7° 87.7° - - 1014.0
6/26 8:50am 87 3 G 7 92° 29% - - 56° 99.7° 87.7° - - 1014.0
6/26 8:40am 88 4 G 6 91° 29% - - 54° 99.7° 87.7° - - 1014.0
6/26 8:30am 105 4 G 5 91° 22% - - 47° 99.7° 87.7° - - 1014.0
6/26 8:20am 105 5 G 8 90° 18% - - 41° 99.7° 87.7° - - 1014.0
6/26 8:10am 106 7 G 10 90° 13% - - 33° 99.7° 87.7° - - 1014.0
6/26 8:00am 104 7 G 10 92° 10% - - 27° 99.7° 87.7° - - 1013.0
6/26 7:50am 84 4 G 9 95° 9% - - 26° 99.7° 87.7° - - 1013.0
6/26 7:40am 91 2 G 4 95° 9% - - 27° 99.7° 87.7° - - 1013.0
6/26 7:30am 78 1 G 5 95° 9% - - 27° 99.7° 87.7° - - 1013.0
6/26 7:20am 172 2 G 6 95° 9% - - 26° 99.7° 87.7° - - 1012.0
6/26 7:10am 209 2 G 5 95° 9% - - 26° 99.7° 87.7° - - 1012.0
6/26 7:00am 246 1 G 2 94° 9% - - 26° 99.7° 87.7° - - 1012.0
6/26 6:50am 194 2 G 4 93° 9% - - 26° 99.7° 87.7° - - 1012.0
6/26 6:40am 204 3 G 4 92° 9% - - 26° 99.7° 87.7° - - 1012.0
6/26 6:30am 191 3 G 5 90° 10% - - 26° 99.7° 87.7° - - 1012.0
6/26 6:20am 234 2 G 6 89° 10% - - 25° 99.7° 87.7° - - 1012.0
6/26 6:10am 129 2 G 6 89° 10% - - 25° 99.7° 87.7° - - 1012.0
6/26 6:00am 250 6 G 8 92° 9% - - 25° 99.7° 90.4° - - 1012.0